sensor_id;sensor_type;location;lat;lon;timestamp;temperature;humidity
42965;DHT22;28604;51.204;22.552;2024-02-14T00:00:21;5.20;90.90
42965;DHT22;28604;51.204;22.552;2024-02-14T00:03:07;5.10;90.90
42965;DHT22;28604;51.204;22.552;2024-02-14T00:05:33;5.10;90.90
42965;DHT22;28604;51.204;22.552;2024-02-14T00:07:59;5.10;90.70
42965;DHT22;28604;51.204;22.552;2024-02-14T00:10:25;5.10;90.70
42965;DHT22;28604;51.204;22.552;2024-02-14T00:12:51;5.10;90.60
42965;DHT22;28604;51.204;22.552;2024-02-14T00:15:18;5.20;90.90
42965;DHT22;28604;51.204;22.552;2024-02-14T00:17:44;5.10;90.70
42965;DHT22;28604;51.204;22.552;2024-02-14T00:20:10;5.20;90.90
42965;DHT22;28604;51.204;22.552;2024-02-14T00:22:38;5.10;90.70
42965;DHT22;28604;51.204;22.552;2024-02-14T00:25:05;5.20;90.80
42965;DHT22;28604;51.204;22.552;2024-02-14T00:27:31;5.10;90.80
42965;DHT22;28604;51.204;22.552;2024-02-14T00:29:57;5.20;90.90
42965;DHT22;28604;51.204;22.552;2024-02-14T00:32:23;5.20;91.00
42965;DHT22;28604;51.204;22.552;2024-02-14T00:34:49;5.20;91.00
42965;DHT22;28604;51.204;22.552;2024-02-14T00:37:16;5.20;91.10
42965;DHT22;28604;51.204;22.552;2024-02-14T00:39:42;5.20;91.10
42965;DHT22;28604;51.204;22.552;2024-02-14T00:42:08;5.20;91.10
42965;DHT22;28604;51.204;22.552;2024-02-14T00:44:34;5.20;91.00
42965;DHT22;28604;51.204;22.552;2024-02-14T00:47:00;5.20;91.10
42965;DHT22;28604;51.204;22.552;2024-02-14T00:49:28;5.20;90.80
42965;DHT22;28604;51.204;22.552;2024-02-14T00:51:54;5.20;90.70
42965;DHT22;28604;51.204;22.552;2024-02-14T00:54:21;5.10;90.30
42965;DHT22;28604;51.204;22.552;2024-02-14T00:56:47;5.20;90.20
42965;DHT22;28604;51.204;22.552;2024-02-14T00:59:13;5.10;90.30
42965;DHT22;28604;51.204;22.552;2024-02-14T01:01:39;5.10;90.40
42965;DHT22;28604;51.204;22.552;2024-02-14T01:04:05;5.20;90.30
42965;DHT22;28604;51.204;22.552;2024-02-14T01:06:31;5.10;90.40
42965;DHT22;28604;51.204;22.552;2024-02-14T01:08:57;5.10;90.40
42965;DHT22;28604;51.204;22.552;2024-02-14T01:11:23;5.10;90.30
42965;DHT22;28604;51.204;22.552;2024-02-14T01:13:49;5.10;90.20
42965;DHT22;28604;51.204;22.552;2024-02-14T01:16:15;5.10;90.40
42965;DHT22;28604;51.204;22.552;2024-02-14T01:18:42;5.10;90.50
42965;DHT22;28604;51.204;22.552;2024-02-14T01:21:08;5.10;90.10
42965;DHT22;28604;51.204;22.552;2024-02-14T01:23:34;5.10;90.30
42965;DHT22;28604;51.204;22.552;2024-02-14T01:26:01;5.10;90.30
42965;DHT22;28604;51.204;22.552;2024-02-14T01:28:27;5.10;90.40
42965;DHT22;28604;51.204;22.552;2024-02-14T01:30:54;5.10;90.30
42965;DHT22;28604;51.204;22.552;2024-02-14T01:33:19;5.10;90.30
42965;DHT22;28604;51.204;22.552;2024-02-14T01:35:46;5.10;90.40
42965;DHT22;28604;51.204;22.552;2024-02-14T01:38:12;5.10;90.30
42965;DHT22;28604;51.204;22.552;2024-02-14T01:40:41;5.10;90.30
42965;DHT22;28604;51.204;22.552;2024-02-14T01:43:07;5.10;90.30
42965;DHT22;28604;51.204;22.552;2024-02-14T01:45:34;5.00;90.30
42965;DHT22;28604;51.204;22.552;2024-02-14T01:48:02;5.10;90.30
42965;DHT22;28604;51.204;22.552;2024-02-14T01:50:28;5.10;90.30
42965;DHT22;28604;51.204;22.552;2024-02-14T01:52:57;5.10;90.40
42965;DHT22;28604;51.204;22.552;2024-02-14T01:55:26;5.00;90.30
42965;DHT22;28604;51.204;22.552;2024-02-14T01:57:54;5.00;90.30
42965;DHT22;28604;51.204;22.552;2024-02-14T02:00:21;5.00;90.40
42965;DHT22;28604;51.204;22.552;2024-02-14T02:02:47;5.00;90.40
42965;DHT22;28604;51.204;22.552;2024-02-14T02:05:19;5.00;90.40
42965;DHT22;28604;51.204;22.552;2024-02-14T02:07:45;5.00;90.40
42965;DHT22;28604;51.204;22.552;2024-02-14T02:10:14;5.00;90.40
42965;DHT22;28604;51.204;22.552;2024-02-14T02:12:40;5.00;90.40
42965;DHT22;28604;51.204;22.552;2024-02-14T02:15:08;5.00;90.30
42965;DHT22;28604;51.204;22.552;2024-02-14T02:17:39;5.00;90.30
42965;DHT22;28604;51.204;22.552;2024-02-14T02:20:06;5.00;90.30
42965;DHT22;28604;51.204;22.552;2024-02-14T02:22:35;5.00;90.20
42965;DHT22;28604;51.204;22.552;2024-02-14T02:25:02;5.10;90.30
42965;DHT22;28604;51.204;22.552;2024-02-14T02:27:29;5.10;90.40
42965;DHT22;28604;51.204;22.552;2024-02-14T02:29:55;5.00;90.30
42965;DHT22;28604;51.204;22.552;2024-02-14T02:32:20;5.00;90.30
42965;DHT22;28604;51.204;22.552;2024-02-14T02:34:47;5.10;90.30
42965;DHT22;28604;51.204;22.552;2024-02-14T02:37:13;5.10;90.30
42965;DHT22;28604;51.204;22.552;2024-02-14T02:39:39;5.10;90.40
42965;DHT22;28604;51.204;22.552;2024-02-14T02:42:05;5.00;90.30
42965;DHT22;28604;51.204;22.552;2024-02-14T02:44:31;5.10;90.40
42965;DHT22;28604;51.204;22.552;2024-02-14T02:46:57;5.10;90.40
42965;DHT22;28604;51.204;22.552;2024-02-14T02:49:23;5.10;90.40
42965;DHT22;28604;51.204;22.552;2024-02-14T02:51:49;5.00;90.40
42965;DHT22;28604;51.204;22.552;2024-02-14T02:54:15;5.10;90.40
42965;DHT22;28604;51.204;22.552;2024-02-14T02:56:41;5.00;90.40
42965;DHT22;28604;51.204;22.552;2024-02-14T02:59:07;5.00;90.40
42965;DHT22;28604;51.204;22.552;2024-02-14T03:01:37;5.00;90.40
42965;DHT22;28604;51.204;22.552;2024-02-14T03:04:03;5.10;90.50
42965;DHT22;28604;51.204;22.552;2024-02-14T03:06:30;5.00;90.40
42965;DHT22;28604;51.204;22.552;2024-02-14T03:08:56;5.00;90.40
42965;DHT22;28604;51.204;22.552;2024-02-14T03:11:23;5.10;90.40
42965;DHT22;28604;51.204;22.552;2024-02-14T03:13:49;5.00;90.50
42965;DHT22;28604;51.204;22.552;2024-02-14T03:16:15;5.10;90.50
42965;DHT22;28604;51.204;22.552;2024-02-14T03:18:44;5.00;90.50
42965;DHT22;28604;51.204;22.552;2024-02-14T03:21:10;5.00;90.40
42965;DHT22;28604;51.204;22.552;2024-02-14T03:23:37;5.10;90.50
42965;DHT22;28604;51.204;22.552;2024-02-14T03:26:05;5.00;90.40
42965;DHT22;28604;51.204;22.552;2024-02-14T03:28:33;5.00;90.40
42965;DHT22;28604;51.204;22.552;2024-02-14T03:30:59;5.00;90.40
42965;DHT22;28604;51.204;22.552;2024-02-14T03:33:25;5.10;90.50
42965;DHT22;28604;51.204;22.552;2024-02-14T03:35:51;5.00;90.40
42965;DHT22;28604;51.204;22.552;2024-02-14T03:38:27;5.00;90.40
42965;DHT22;28604;51.204;22.552;2024-02-14T03:40:54;5.00;90.40
42965;DHT22;28604;51.204;22.552;2024-02-14T03:43:20;5.10;90.50
42965;DHT22;28604;51.204;22.552;2024-02-14T03:45:47;5.10;90.50
42965;DHT22;28604;51.204;22.552;2024-02-14T03:48:13;5.10;90.60
42965;DHT22;28604;51.204;22.552;2024-02-14T03:50:39;5.10;90.50
42965;DHT22;28604;51.204;22.552;2024-02-14T03:53:05;5.00;90.50
42965;DHT22;28604;51.204;22.552;2024-02-14T03:55:31;5.00;90.50
42965;DHT22;28604;51.204;22.552;2024-02-14T03:57:57;5.00;90.50
42965;DHT22;28604;51.204;22.552;2024-02-14T04:00:23;5.10;90.60
42965;DHT22;28604;51.204;22.552;2024-02-14T04:02:49;5.10;90.60
42965;DHT22;28604;51.204;22.552;2024-02-14T04:05:18;5.00;90.60
42965;DHT22;28604;51.204;22.552;2024-02-14T04:07:44;5.10;90.70
42965;DHT22;28604;51.204;22.552;2024-02-14T04:10:14;5.10;90.70
42965;DHT22;28604;51.204;22.552;2024-02-14T04:12:40;5.10;90.90
42965;DHT22;28604;51.204;22.552;2024-02-14T04:15:07;5.10;90.60
42965;DHT22;28604;51.204;22.552;2024-02-14T04:17:33;5.10;90.70
42965;DHT22;28604;51.204;22.552;2024-02-14T04:19:59;5.10;90.90
42965;DHT22;28604;51.204;22.552;2024-02-14T04:22:25;5.10;90.70
42965;DHT22;28604;51.204;22.552;2024-02-14T04:24:51;5.10;90.70
42965;DHT22;28604;51.204;22.552;2024-02-14T04:27:17;5.00;90.70
42965;DHT22;28604;51.204;22.552;2024-02-14T04:29:47;5.00;90.70
42965;DHT22;28604;51.204;22.552;2024-02-14T04:32:14;5.10;90.70
42965;DHT22;28604;51.204;22.552;2024-02-14T04:34:40;5.00;90.70
42965;DHT22;28604;51.204;22.552;2024-02-14T04:37:07;5.00;90.70
42965;DHT22;28604;51.204;22.552;2024-02-14T04:39:38;5.00;90.80
42965;DHT22;28604;51.204;22.552;2024-02-14T04:42:04;5.00;90.80
42965;DHT22;28604;51.204;22.552;2024-02-14T04:44:31;5.00;90.80
42965;DHT22;28604;51.204;22.552;2024-02-14T04:46:58;5.00;90.90
42965;DHT22;28604;51.204;22.552;2024-02-14T04:49:24;5.00;90.80
42965;DHT22;28604;51.204;22.552;2024-02-14T04:51:51;5.00;90.90
42965;DHT22;28604;51.204;22.552;2024-02-14T04:54:17;5.00;90.90
42965;DHT22;28604;51.204;22.552;2024-02-14T04:56:43;5.00;90.90
42965;DHT22;28604;51.204;22.552;2024-02-14T04:59:11;5.00;90.90
42965;DHT22;28604;51.204;22.552;2024-02-14T05:01:37;5.00;90.90
42965;DHT22;28604;51.204;22.552;2024-02-14T05:04:06;5.10;90.90
42965;DHT22;28604;51.204;22.552;2024-02-14T05:06:33;5.00;90.90
42965;DHT22;28604;51.204;22.552;2024-02-14T05:08:59;5.00;90.90
42965;DHT22;28604;51.204;22.552;2024-02-14T05:11:25;5.00;90.90
42965;DHT22;28604;51.204;22.552;2024-02-14T05:13:51;5.00;91.00
42965;DHT22;28604;51.204;22.552;2024-02-14T05:16:20;5.00;90.90
42965;DHT22;28604;51.204;22.552;2024-02-14T05:18:46;5.10;91.00
42965;DHT22;28604;51.204;22.552;2024-02-14T05:21:13;5.00;91.00
42965;DHT22;28604;51.204;22.552;2024-02-14T05:23:39;5.00;91.00
42965;DHT22;28604;51.204;22.552;2024-02-14T05:26:06;5.00;91.00
42965;DHT22;28604;51.204;22.552;2024-02-14T05:28:32;5.00;91.00
42965;DHT22;28604;51.204;22.552;2024-02-14T05:30:59;5.00;91.00
42965;DHT22;28604;51.204;22.552;2024-02-14T05:33:26;5.00;91.00
42965;DHT22;28604;51.204;22.552;2024-02-14T05:35:52;5.00;91.00
42965;DHT22;28604;51.204;22.552;2024-02-14T05:38:18;5.00;91.00
42965;DHT22;28604;51.204;22.552;2024-02-14T05:40:48;5.00;91.00
42965;DHT22;28604;51.204;22.552;2024-02-14T05:43:14;5.00;91.10
42965;DHT22;28604;51.204;22.552;2024-02-14T05:45:41;5.00;91.00
42965;DHT22;28604;51.204;22.552;2024-02-14T05:48:07;5.00;91.10
42965;DHT22;28604;51.204;22.552;2024-02-14T05:50:34;5.00;91.10
42965;DHT22;28604;51.204;22.552;2024-02-14T05:53:00;5.00;91.00
42965;DHT22;28604;51.204;22.552;2024-02-14T05:55:26;5.00;91.10
42965;DHT22;28604;51.204;22.552;2024-02-14T05:57:52;5.00;91.10
42965;DHT22;28604;51.204;22.552;2024-02-14T06:00:19;5.00;91.10
42965;DHT22;28604;51.204;22.552;2024-02-14T06:02:48;5.00;91.10
42965;DHT22;28604;51.204;22.552;2024-02-14T06:05:16;5.00;91.10
42965;DHT22;28604;51.204;22.552;2024-02-14T06:07:42;5.00;91.10
42965;DHT22;28604;51.204;22.552;2024-02-14T06:10:11;5.00;91.10
42965;DHT22;28604;51.204;22.552;2024-02-14T06:12:37;5.00;91.10
42965;DHT22;28604;51.204;22.552;2024-02-14T06:15:03;5.00;91.10
42965;DHT22;28604;51.204;22.552;2024-02-14T06:17:29;5.00;91.10
42965;DHT22;28604;51.204;22.552;2024-02-14T06:19:56;5.00;91.20
42965;DHT22;28604;51.204;22.552;2024-02-14T06:22:22;5.00;91.20
42965;DHT22;28604;51.204;22.552;2024-02-14T06:24:51;5.00;91.20
42965;DHT22;28604;51.204;22.552;2024-02-14T06:27:17;5.00;91.20
42965;DHT22;28604;51.204;22.552;2024-02-14T06:29:44;5.10;91.20
42965;DHT22;28604;51.204;22.552;2024-02-14T06:32:14;5.10;91.20
42965;DHT22;28604;51.204;22.552;2024-02-14T06:34:40;5.10;91.10
42965;DHT22;28604;51.204;22.552;2024-02-14T06:37:06;5.10;91.00
42965;DHT22;28604;51.204;22.552;2024-02-14T06:39:32;5.10;91.10
42965;DHT22;28604;51.204;22.552;2024-02-14T06:41:58;5.20;91.10
42965;DHT22;28604;51.204;22.552;2024-02-14T06:44:24;5.20;91.10
42965;DHT22;28604;51.204;22.552;2024-02-14T06:46:50;5.20;91.00
42965;DHT22;28604;51.204;22.552;2024-02-14T06:49:16;5.20;91.00
42965;DHT22;28604;51.204;22.552;2024-02-14T06:51:43;5.20;91.00
42965;DHT22;28604;51.204;22.552;2024-02-14T06:54:09;5.20;90.90
42965;DHT22;28604;51.204;22.552;2024-02-14T06:56:36;5.30;91.00
42965;DHT22;28604;51.204;22.552;2024-02-14T06:59:02;5.30;91.00
42965;DHT22;28604;51.204;22.552;2024-02-14T07:01:29;5.40;90.90
42965;DHT22;28604;51.204;22.552;2024-02-14T07:03:56;5.40;91.00
42965;DHT22;28604;51.204;22.552;2024-02-14T07:06:22;5.40;91.00
42965;DHT22;28604;51.204;22.552;2024-02-14T07:08:48;5.50;90.90
42965;DHT22;28604;51.204;22.552;2024-02-14T07:11:16;5.50;91.00
42965;DHT22;28604;51.204;22.552;2024-02-14T07:13:43;5.50;91.00
42965;DHT22;28604;51.204;22.552;2024-02-14T07:16:09;5.60;91.00
42965;DHT22;28604;51.204;22.552;2024-02-14T07:18:35;5.70;90.90
42965;DHT22;28604;51.204;22.552;2024-02-14T07:21:01;5.70;90.90
42965;DHT22;28604;51.204;22.552;2024-02-14T07:23:28;5.80;90.80
42965;DHT22;28604;51.204;22.552;2024-02-14T07:25:53;5.80;90.80
42965;DHT22;28604;51.204;22.552;2024-02-14T07:28:20;5.90;90.80
42965;DHT22;28604;51.204;22.552;2024-02-14T07:30:45;6.00;91.00
42965;DHT22;28604;51.204;22.552;2024-02-14T07:33:12;6.00;90.50
42965;DHT22;28604;51.204;22.552;2024-02-14T07:35:38;6.10;90.70
42965;DHT22;28604;51.204;22.552;2024-02-14T07:38:04;6.20;90.50
42965;DHT22;28604;51.204;22.552;2024-02-14T07:40:30;6.20;90.00
42965;DHT22;28604;51.204;22.552;2024-02-14T07:42:58;6.30;90.00
42965;DHT22;28604;51.204;22.552;2024-02-14T07:45:25;6.30;89.20
42965;DHT22;28604;51.204;22.552;2024-02-14T07:48:39;6.30;89.80
42965;DHT22;28604;51.204;22.552;2024-02-14T07:51:19;6.40;89.00
42965;DHT22;28604;51.204;22.552;2024-02-14T07:54:19;6.50;89.00
42965;DHT22;28604;51.204;22.552;2024-02-14T07:56:57;6.60;88.20
42965;DHT22;28604;51.204;22.552;2024-02-14T07:59:39;6.70;88.00
42965;DHT22;28604;51.204;22.552;2024-02-14T08:02:07;6.80;88.20
42965;DHT22;28604;51.204;22.552;2024-02-14T08:04:33;6.80;86.40
42965;DHT22;28604;51.204;22.552;2024-02-14T08:06:59;6.80;86.90
42965;DHT22;28604;51.204;22.552;2024-02-14T08:09:25;7.00;88.20
42965;DHT22;28604;51.204;22.552;2024-02-14T08:11:51;7.30;89.10
42965;DHT22;28604;51.204;22.552;2024-02-14T08:14:19;7.70;88.80
42965;DHT22;28604;51.204;22.552;2024-02-14T08:16:45;8.10;88.20
42965;DHT22;28604;51.204;22.552;2024-02-14T08:19:10;8.60;86.40
42965;DHT22;28604;51.204;22.552;2024-02-14T08:21:37;9.00;85.60
42965;DHT22;28604;51.204;22.552;2024-02-14T08:24:03;9.30;83.60
42965;DHT22;28604;51.204;22.552;2024-02-14T08:26:29;9.50;82.80
42965;DHT22;28604;51.204;22.552;2024-02-14T08:28:57;9.80;81.10
42965;DHT22;28604;51.204;22.552;2024-02-14T08:31:24;10.00;81.80
42965;DHT22;28604;51.204;22.552;2024-02-14T08:33:50;10.10;79.40
42965;DHT22;28604;51.204;22.552;2024-02-14T08:36:16;10.20;79.70
42965;DHT22;28604;51.204;22.552;2024-02-14T08:38:45;10.30;79.60
42965;DHT22;28604;51.204;22.552;2024-02-14T08:41:12;10.40;78.30
42965;DHT22;28604;51.204;22.552;2024-02-14T08:43:38;10.40;78.90
42965;DHT22;28604;51.204;22.552;2024-02-14T08:46:10;10.40;76.70
42965;DHT22;28604;51.204;22.552;2024-02-14T08:48:37;10.40;76.70
42965;DHT22;28604;51.204;22.552;2024-02-14T08:51:08;10.40;76.80
42965;DHT22;28604;51.204;22.552;2024-02-14T08:53:35;10.40;76.90
42965;DHT22;28604;51.204;22.552;2024-02-14T08:56:02;10.50;77.00
42965;DHT22;28604;51.204;22.552;2024-02-14T08:58:29;10.70;77.70
42965;DHT22;28604;51.204;22.552;2024-02-14T09:00:55;10.90;78.10
42965;DHT22;28604;51.204;22.552;2024-02-14T09:03:21;11.20;75.10
42965;DHT22;28604;51.204;22.552;2024-02-14T09:05:47;11.50;74.30
42965;DHT22;28604;51.204;22.552;2024-02-14T09:08:13;11.90;75.90
42965;DHT22;28604;51.204;22.552;2024-02-14T09:10:39;12.30;75.10
42965;DHT22;28604;51.204;22.552;2024-02-14T09:13:05;12.70;76.20
42965;DHT22;28604;51.204;22.552;2024-02-14T09:15:33;13.10;70.80
42965;DHT22;28604;51.204;22.552;2024-02-14T09:17:59;13.50;72.20
42965;DHT22;28604;51.204;22.552;2024-02-14T09:20:29;13.90;69.40
42965;DHT22;28604;51.204;22.552;2024-02-14T09:22:56;14.20;69.60
42965;DHT22;28604;51.204;22.552;2024-02-14T09:25:24;14.40;70.70
42965;DHT22;28604;51.204;22.552;2024-02-14T09:27:51;14.50;68.50
42965;DHT22;28604;51.204;22.552;2024-02-14T09:30:17;14.60;68.20
42965;DHT22;28604;51.204;22.552;2024-02-14T09:32:44;14.60;65.60
42965;DHT22;28604;51.204;22.552;2024-02-14T09:35:10;14.60;66.50
42965;DHT22;28604;51.204;22.552;2024-02-14T09:37:36;14.60;65.90
42965;DHT22;28604;51.204;22.552;2024-02-14T09:40:06;14.70;66.90
42965;DHT22;28604;51.204;22.552;2024-02-14T09:42:40;14.80;66.40
42965;DHT22;28604;51.204;22.552;2024-02-14T09:45:08;14.90;66.00
42965;DHT22;28604;51.204;22.552;2024-02-14T09:47:35;15.00;67.10
42965;DHT22;28604;51.204;22.552;2024-02-14T09:50:06;15.10;66.50
42965;DHT22;28604;51.204;22.552;2024-02-14T09:52:34;15.10;67.00
42965;DHT22;28604;51.204;22.552;2024-02-14T09:55:01;15.00;64.80
42965;DHT22;28604;51.204;22.552;2024-02-14T09:57:29;15.00;66.30
42965;DHT22;28604;51.204;22.552;2024-02-14T09:59:56;14.90;63.80
42965;DHT22;28604;51.204;22.552;2024-02-14T10:02:22;14.80;64.60
42965;DHT22;28604;51.204;22.552;2024-02-14T10:04:48;14.60;64.70
42965;DHT22;28604;51.204;22.552;2024-02-14T10:07:14;14.50;63.40
42965;DHT22;28604;51.204;22.552;2024-02-14T10:09:41;14.40;65.50
42965;DHT22;28604;51.204;22.552;2024-02-14T10:12:08;14.20;64.90
42965;DHT22;28604;51.204;22.552;2024-02-14T10:14:35;14.10;64.30
42965;DHT22;28604;51.204;22.552;2024-02-14T10:17:05;14.00;65.40
42965;DHT22;28604;51.204;22.552;2024-02-14T10:19:33;13.80;65.10
42965;DHT22;28604;51.204;22.552;2024-02-14T10:22:00;13.80;66.80
42965;DHT22;28604;51.204;22.552;2024-02-14T10:24:29;13.70;65.20
42965;DHT22;28604;51.204;22.552;2024-02-14T10:26:59;13.70;67.30
42965;DHT22;28604;51.204;22.552;2024-02-14T10:29:27;13.60;66.00
42965;DHT22;28604;51.204;22.552;2024-02-14T10:31:53;13.60;65.00
42965;DHT22;28604;51.204;22.552;2024-02-14T10:34:24;13.60;64.00
42965;DHT22;28604;51.204;22.552;2024-02-14T10:36:53;13.60;66.70
42965;DHT22;28604;51.204;22.552;2024-02-14T10:39:19;13.50;65.90
42965;DHT22;28604;51.204;22.552;2024-02-14T10:41:46;13.40;65.50
42965;DHT22;28604;51.204;22.552;2024-02-14T10:44:12;13.40;68.30
42965;DHT22;28604;51.204;22.552;2024-02-14T10:46:40;13.30;67.60
42965;DHT22;28604;51.204;22.552;2024-02-14T10:49:07;13.20;65.80
42965;DHT22;28604;51.204;22.552;2024-02-14T10:51:38;13.20;66.30
42965;DHT22;28604;51.204;22.552;2024-02-14T10:54:11;13.10;66.00
42965;DHT22;28604;51.204;22.552;2024-02-14T10:56:42;13.00;65.80
42965;DHT22;28604;51.204;22.552;2024-02-14T10:59:16;12.90;66.10
42965;DHT22;28604;51.204;22.552;2024-02-14T11:01:44;12.80;64.20
42965;DHT22;28604;51.204;22.552;2024-02-14T11:04:11;12.80;66.20
42965;DHT22;28604;51.204;22.552;2024-02-14T11:06:47;12.70;66.50
42965;DHT22;28604;51.204;22.552;2024-02-14T11:09:14;12.70;66.50
42965;DHT22;28604;51.204;22.552;2024-02-14T11:11:44;12.70;65.90
42965;DHT22;28604;51.204;22.552;2024-02-14T11:14:15;12.80;65.70
42965;DHT22;28604;51.204;22.552;2024-02-14T11:16:41;12.90;66.90
42965;DHT22;28604;51.204;22.552;2024-02-14T11:19:12;13.10;66.40
42965;DHT22;28604;51.204;22.552;2024-02-14T11:21:43;13.40;67.50
42965;DHT22;28604;51.204;22.552;2024-02-14T11:24:14;13.50;66.80
42965;DHT22;28604;51.204;22.552;2024-02-14T11:26:47;13.60;66.90
42965;DHT22;28604;51.204;22.552;2024-02-14T11:29:15;13.80;66.10
42965;DHT22;28604;51.204;22.552;2024-02-14T11:31:45;13.80;63.60
42965;DHT22;28604;51.204;22.552;2024-02-14T11:34:12;13.90;65.00
42965;DHT22;28604;51.204;22.552;2024-02-14T11:36:41;14.10;65.40
42965;DHT22;28604;51.204;22.552;2024-02-14T11:39:08;14.20;65.90
42965;DHT22;28604;51.204;22.552;2024-02-14T11:41:34;14.40;63.20
42965;DHT22;28604;51.204;22.552;2024-02-14T11:44:02;14.50;62.60
42965;DHT22;28604;51.204;22.552;2024-02-14T11:46:35;14.60;63.20
42965;DHT22;28604;51.204;22.552;2024-02-14T11:49:04;14.70;63.40
42965;DHT22;28604;51.204;22.552;2024-02-14T11:51:30;14.70;64.20
42965;DHT22;28604;51.204;22.552;2024-02-14T11:54:00;14.70;64.10
42965;DHT22;28604;51.204;22.552;2024-02-14T11:56:34;14.80;64.80
42965;DHT22;28604;51.204;22.552;2024-02-14T11:59:02;14.70;65.10
42965;DHT22;28604;51.204;22.552;2024-02-14T12:01:33;14.70;66.50
42965;DHT22;28604;51.204;22.552;2024-02-14T12:04:08;14.60;63.70
42965;DHT22;28604;51.204;22.552;2024-02-14T12:06:35;14.50;62.70
42965;DHT22;28604;51.204;22.552;2024-02-14T12:09:02;14.40;62.70
42965;DHT22;28604;51.204;22.552;2024-02-14T12:11:34;14.30;64.30
42965;DHT22;28604;51.204;22.552;2024-02-14T12:14:05;14.20;63.80
42965;DHT22;28604;51.204;22.552;2024-02-14T12:16:31;14.20;64.40
42965;DHT22;28604;51.204;22.552;2024-02-14T12:19:08;14.10;65.30
42965;DHT22;28604;51.204;22.552;2024-02-14T12:21:39;13.90;62.10
42965;DHT22;28604;51.204;22.552;2024-02-14T12:24:09;13.80;63.90
42965;DHT22;28604;51.204;22.552;2024-02-14T12:26:36;13.80;62.40
42965;DHT22;28604;51.204;22.552;2024-02-14T12:29:07;13.70;61.90
42965;DHT22;28604;51.204;22.552;2024-02-14T12:31:34;13.70;61.80
42965;DHT22;28604;51.204;22.552;2024-02-14T12:34:03;13.70;64.20
42965;DHT22;28604;51.204;22.552;2024-02-14T12:36:31;13.70;62.60
42965;DHT22;28604;51.204;22.552;2024-02-14T12:38:59;13.70;62.80
42965;DHT22;28604;51.204;22.552;2024-02-14T12:41:28;13.80;62.30
42965;DHT22;28604;51.204;22.552;2024-02-14T12:43:58;13.80;60.50
42965;DHT22;28604;51.204;22.552;2024-02-14T12:46:24;13.80;61.90
42965;DHT22;28604;51.204;22.552;2024-02-14T12:48:50;13.80;62.60
42965;DHT22;28604;51.204;22.552;2024-02-14T12:51:16;13.70;64.90
42965;DHT22;28604;51.204;22.552;2024-02-14T12:53:43;13.80;65.80
42965;DHT22;28604;51.204;22.552;2024-02-14T12:56:09;13.80;65.30
42965;DHT22;28604;51.204;22.552;2024-02-14T12:58:35;13.80;64.10
42965;DHT22;28604;51.204;22.552;2024-02-14T13:01:02;13.80;62.30
42965;DHT22;28604;51.204;22.552;2024-02-14T13:03:34;13.90;63.60
42965;DHT22;28604;51.204;22.552;2024-02-14T13:06:01;13.90;63.30
42965;DHT22;28604;51.204;22.552;2024-02-14T13:08:28;13.90;62.90
42965;DHT22;28604;51.204;22.552;2024-02-14T13:10:54;13.90;63.10
42965;DHT22;28604;51.204;22.552;2024-02-14T13:13:22;13.80;64.30
42965;DHT22;28604;51.204;22.552;2024-02-14T13:15:48;13.80;62.90
42965;DHT22;28604;51.204;22.552;2024-02-14T13:18:15;13.70;62.80
42965;DHT22;28604;51.204;22.552;2024-02-14T13:20:43;13.70;63.00
42965;DHT22;28604;51.204;22.552;2024-02-14T13:23:10;13.60;62.60
42965;DHT22;28604;51.204;22.552;2024-02-14T13:25:36;13.60;63.10
42965;DHT22;28604;51.204;22.552;2024-02-14T13:28:04;13.60;62.80
42965;DHT22;28604;51.204;22.552;2024-02-14T13:30:31;13.50;62.70
42965;DHT22;28604;51.204;22.552;2024-02-14T13:32:57;13.50;62.70
42965;DHT22;28604;51.204;22.552;2024-02-14T13:35:23;13.40;62.90
42965;DHT22;28604;51.204;22.552;2024-02-14T13:37:49;13.30;62.30
42965;DHT22;28604;51.204;22.552;2024-02-14T13:40:15;13.20;62.40
42965;DHT22;28604;51.204;22.552;2024-02-14T13:42:41;13.10;62.30
42965;DHT22;28604;51.204;22.552;2024-02-14T13:45:08;13.00;63.10
42965;DHT22;28604;51.204;22.552;2024-02-14T13:47:38;12.90;62.80
42965;DHT22;28604;51.204;22.552;2024-02-14T13:50:09;12.90;63.60
42965;DHT22;28604;51.204;22.552;2024-02-14T13:52:35;12.90;63.80
42965;DHT22;28604;51.204;22.552;2024-02-14T13:55:05;12.90;64.40
42965;DHT22;28604;51.204;22.552;2024-02-14T13:57:37;12.90;64.20
42965;DHT22;28604;51.204;22.552;2024-02-14T14:00:06;13.00;65.00
42965;DHT22;28604;51.204;22.552;2024-02-14T14:02:38;13.00;64.20
42965;DHT22;28604;51.204;22.552;2024-02-14T14:05:08;13.00;65.40
42965;DHT22;28604;51.204;22.552;2024-02-14T14:07:36;13.10;64.10
42965;DHT22;28604;51.204;22.552;2024-02-14T14:10:04;13.10;65.30
42965;DHT22;28604;51.204;22.552;2024-02-14T14:12:30;13.10;65.10
42965;DHT22;28604;51.204;22.552;2024-02-14T14:14:57;13.10;65.30
42965;DHT22;28604;51.204;22.552;2024-02-14T14:17:24;13.10;63.80
42965;DHT22;28604;51.204;22.552;2024-02-14T14:19:50;13.10;64.90
42965;DHT22;28604;51.204;22.552;2024-02-14T14:22:16;13.00;65.60
42965;DHT22;28604;51.204;22.552;2024-02-14T14:24:42;13.00;65.00
42965;DHT22;28604;51.204;22.552;2024-02-14T14:27:09;13.10;65.90
42965;DHT22;28604;51.204;22.552;2024-02-14T14:29:39;13.00;64.70
42965;DHT22;28604;51.204;22.552;2024-02-14T14:32:15;13.10;64.80
42965;DHT22;28604;51.204;22.552;2024-02-14T14:34:54;13.00;64.20
42965;DHT22;28604;51.204;22.552;2024-02-14T14:37:20;13.00;64.40
42965;DHT22;28604;51.204;22.552;2024-02-14T14:39:48;13.00;65.30
42965;DHT22;28604;51.204;22.552;2024-02-14T14:42:14;13.00;65.80
42965;DHT22;28604;51.204;22.552;2024-02-14T14:44:40;12.90;64.60
42965;DHT22;28604;51.204;22.552;2024-02-14T14:47:07;12.80;65.20
42965;DHT22;28604;51.204;22.552;2024-02-14T14:49:33;12.80;66.10
42965;DHT22;28604;51.204;22.552;2024-02-14T14:52:00;12.80;65.60
42965;DHT22;28604;51.204;22.552;2024-02-14T14:54:29;12.70;64.70
42965;DHT22;28604;51.204;22.552;2024-02-14T14:56:56;12.60;64.10
42965;DHT22;28604;51.204;22.552;2024-02-14T14:59:22;12.50;63.90
42965;DHT22;28604;51.204;22.552;2024-02-14T15:01:49;12.40;64.60
42965;DHT22;28604;51.204;22.552;2024-02-14T15:04:16;12.30;64.70
42965;DHT22;28604;51.204;22.552;2024-02-14T15:06:42;12.20;64.60
42965;DHT22;28604;51.204;22.552;2024-02-14T15:09:09;12.10;65.20
42965;DHT22;28604;51.204;22.552;2024-02-14T15:11:35;12.00;65.80
42965;DHT22;28604;51.204;22.552;2024-02-14T15:14:01;11.90;65.90
42965;DHT22;28604;51.204;22.552;2024-02-14T15:16:27;11.80;66.60
42965;DHT22;28604;51.204;22.552;2024-02-14T15:18:54;11.70;65.90
42965;DHT22;28604;51.204;22.552;2024-02-14T15:21:20;11.50;65.30
42965;DHT22;28604;51.204;22.552;2024-02-14T15:23:46;11.40;65.90
42965;DHT22;28604;51.204;22.552;2024-02-14T15:26:12;11.30;66.80